Time;durP1;ratioP1;P1;durP2;ratioP2;P2;SDS_P1;SDS_P2;PMS_P1;PMS_P2;Temp;Humidity;BMP_temperature;BMP_pressure;BME280_temperature;BME280_humidity;BME280_pressure;Samples;Min_cycle;Max_cycle;Signal;HPM_P1;HPM_P2
2024/01/07 00:01:59;;;;;;;6.20;3.60;;;;;;;-0.13;83.85;96320.88;107921;1238;98004;-83
2024/01/07 00:04:25;;;;;;;4.90;3.20;;;;;;;-0.13;84.02;96323.50;107792;1236;99551;-84
2024/01/07 00:06:51;;;;;;;4.00;3.20;;;;;;;-0.14;83.94;96325.73;107801;1247;98004;-83
2024/01/07 00:09:18;;;;;;;4.60;3.50;;;;;;;-0.16;83.98;96326.13;107829;1238;97940;-84
2024/01/07 00:11:44;;;;;;;6.10;4.30;;;;;;;-0.17;84.01;96332.33;107746;1241;97969;-88
2024/01/07 00:14:10;;;;;;;7.70;4.10;;;;;;;-0.18;84.00;96337.40;107728;1250;99834;-84
2024/01/07 00:16:37;;;;;;;6.40;4.30;;;;;;;-0.19;83.83;96338.33;107805;1247;97904;-76
2024/01/07 00:19:03;;;;;;;6.20;3.90;;;;;;;-0.23;83.81;96340.23;107797;1238;97891;-75
2024/01/07 00:21:29;;;;;;;5.10;4.00;;;;;;;-0.24;83.76;96341.69;107878;1248;98891;-76
2024/01/07 00:23:56;;;;;;;5.60;4.50;;;;;;;-0.26;83.66;96344.10;107812;1241;99840;-76
2024/01/07 00:26:22;;;;;;;6.70;4.40;;;;;;;-0.27;83.58;96348.23;107815;1238;97891;-76
2024/01/07 00:28:48;;;;;;;5.10;3.80;;;;;;;-0.36;83.28;96347.05;107825;1235;98830;-77
2024/01/07 00:31:15;;;;;;;4.00;3.60;;;;;;;-0.38;83.34;96350.73;107826;1235;97937;-79
2024/01/07 00:33:41;;;;;;;5.30;4.10;;;;;;;-0.41;83.32;96350.98;107795;1240;98825;-76
2024/01/07 00:36:08;;;;;;;7.50;4.90;;;;;;;-0.43;83.20;96350.59;107778;1239;97984;-75
2024/01/07 00:38:34;;;;;;;6.00;4.80;;;;;;;-0.46;83.28;96348.00;107777;1235;98360;-76
2024/01/07 00:41:00;;;;;;;7.40;4.60;;;;;;;-0.47;83.41;96347.94;107921;1235;97899;-75
2024/01/07 00:43:27;;;;;;;5.60;4.20;;;;;;;-0.48;83.41;96349.34;107756;1241;99553;-77
2024/01/07 00:45:53;;;;;;;4.90;4.20;;;;;;;-0.50;83.35;96351.12;107813;1241;98816;-83
2024/01/07 00:48:20;;;;;;;4.90;4.10;;;;;;;-0.50;83.24;96357.18;107824;1238;98811;-83
2024/01/07 00:50:46;;;;;;;5.70;4.30;;;;;;;-0.51;83.22;96357.81;107835;1238;98420;-83
2024/01/07 00:53:13;;;;;;;5.80;4.50;;;;;;;-0.55;83.17;96359.95;107646;1240;99919;-82
2024/01/07 00:55:39;;;;;;;6.50;4.70;;;;;;;-0.56;83.37;96358.86;107794;1248;99020;-82
2024/01/07 00:58:05;;;;;;;6.50;5.40;;;;;;;-0.61;83.21;96358.01;107813;1245;97962;-83
2024/01/07 01:00:32;;;;;;;6.40;4.90;;;;;;;-0.63;83.17;96361.93;107922;1245;97887;-81
2024/01/07 01:02:58;;;;;;;5.50;5.00;;;;;;;-0.65;83.07;96369.21;107840;1238;99646;-82
2024/01/07 01:05:25;;;;;;;6.70;5.00;;;;;;;-0.67;83.10;96370.30;107824;1246;97879;-82
2024/01/07 01:07:51;;;;;;;6.80;5.20;;;;;;;-0.68;83.10;96372.05;107839;1235;97918;-82
2024/01/07 01:10:18;;;;;;;6.40;4.90;;;;;;;-0.72;82.97;96369.09;107882;1236;98816;-82
2024/01/07 01:12:45;;;;;;;5.90;5.10;;;;;;;-0.75;82.84;96373.94;107759;1243;99877;-75
2024/01/07 01:15:11;;;;;;;6.00;5.30;;;;;;;-0.78;82.78;96374.41;107815;1241;97958;-74
2024/01/07 01:17:38;;;;;;;6.00;5.40;;;;;;;-0.81;82.73;96376.98;107752;1239;98827;-91
2024/01/07 01:20:05;;;;;;;7.70;5.30;;;;;;;-0.82;82.66;96380.11;107881;1241;99135;-89
2024/01/07 01:22:31;;;;;;;7.20;5.80;;;;;;;-0.85;82.56;96379.92;107842;1241;100044;-88
2024/01/07 01:24:58;;;;;;;7.30;5.70;;;;;;;-0.86;82.72;96374.02;107844;1241;97931;-88
2024/01/07 01:27:25;;;;;;;6.90;5.60;;;;;;;-0.88;82.74;96375.45;107802;1240;97937;-89
2024/01/07 01:29:51;;;;;;;6.70;5.20;;;;;;;-0.91;82.60;96376.14;107893;1246;98318;-75
2024/01/07 01:32:18;;;;;;;7.10;5.70;;;;;;;-0.93;82.54;96379.38;107786;1238;99791;-78
2024/01/07 01:34:44;;;;;;;7.50;5.50;;;;;;;-0.95;82.63;96381.86;107833;1238;97926;-77
2024/01/07 01:37:10;;;;;;;7.00;5.50;;;;;;;-1.01;82.57;96382.37;107816;1238;98826;-77
2024/01/07 01:39:40;;;;;;;7.30;5.70;;;;;;;-1.03;82.53;96381.56;107858;1248;97983;-79
2024/01/07 01:42:07;;;;;;;8.60;5.60;;;;;;;-1.08;82.52;96384.14;107853;1249;99814;-77
2024/01/07 01:44:34;;;;;;;7.30;5.50;;;;;;;-1.12;82.49;96384.38;107795;1249;99136;-78
2024/01/07 01:47:02;;;;;;;7.90;5.60;;;;;;;-1.14;82.58;96385.13;107832;1240;97964;-75
2024/01/07 01:49:28;;;;;;;6.20;5.50;;;;;;;-1.14;82.48;96387.13;107787;1248;97992;-81
2024/01/07 01:51:55;;;;;;;6.60;5.40;;;;;;;-1.16;82.46;96386.88;107829;1245;97901;-89
2024/01/07 01:54:22;;;;;;;6.00;5.40;;;;;;;-1.13;82.55;96388.58;107873;1241;97949;-88
2024/01/07 01:56:49;;;;;;;6.00;5.20;;;;;;;-1.14;82.40;96387.81;107802;1237;98465;-88
2024/01/07 01:59:16;;;;;;;6.70;5.20;;;;;;;-1.20;82.25;96390.21;107796;1243;111070;-90
2024/01/07 02:01:42;;;;;;;7.70;5.50;;;;;;;-1.21;82.28;96392.27;107776;1241;97928;-75
2024/01/07 02:04:09;;;;;;;7.30;5.40;;;;;;;-1.21;82.31;96397.16;107810;1238;99240;-77
2024/01/07 02:06:36;;;;;;;6.60;5.50;;;;;;;-1.23;82.39;96394.02;107751;1248;98228;-79
2024/01/07 02:09:03;;;;;;;6.70;5.40;;;;;;;-1.21;82.34;96399.44;107910;1235;99133;-83
2024/01/07 02:11:30;;;;;;;8.10;5.00;;;;;;;-1.20;82.41;96397.05;107827;1247;101193;-82
2024/01/07 02:13:56;;;;;;;7.80;5.40;;;;;;;-1.21;82.28;96391.69;107808;1246;98797;-83
2024/01/07 02:16:22;;;;;;;6.40;5.10;;;;;;;-1.26;82.25;96389.95;107806;1239;98684;-83
2024/01/07 02:18:49;;;;;;;6.30;5.10;;;;;;;-1.28;82.28;96393.88;107950;1235;97924;-83
2024/01/07 02:21:15;;;;;;;8.00;5.60;;;;;;;-1.30;82.21;96395.85;107813;1238;100253;-83
2024/01/07 02:23:42;;;;;;;6.60;5.40;;;;;;;-1.32;82.17;96396.45;107824;1239;98684;-82
2024/01/07 02:26:08;;;;;;;7.00;5.50;;;;;;;-1.32;82.19;96398.27;107842;1247;97987;-78
2024/01/07 02:28:35;;;;;;;6.60;5.40;;;;;;;-1.33;82.04;96396.79;107910;1240;99706;-86
2024/01/07 02:31:02;;;;;;;7.80;5.90;;;;;;;-1.36;82.07;96396.84;107813;1240;101149;-82
2024/01/07 02:33:29;;;;;;;6.80;5.50;;;;;;;-1.37;82.11;96396.52;107813;1237;97903;-80
2024/01/07 02:35:55;;;;;;;8.20;5.90;;;;;;;-1.40;82.06;96399.24;107797;1238;97898;-82
2024/01/07 02:38:22;;;;;;;6.20;5.40;;;;;;;-1.43;82.00;96399.59;107849;1249;97908;-82
2024/01/07 02:40:48;;;;;;;6.90;5.00;;;;;;;-1.43;82.01;96397.48;107887;1247;98000;-83
2024/01/07 02:43:14;;;;;;;5.90;5.00;;;;;;;-1.43;82.02;96397.61;107817;1238;99217;-81
2024/01/07 02:45:41;;;;;;;7.20;5.50;;;;;;;-1.44;81.94;96400.52;107816;1239;98692;-75
2024/01/07 02:48:07;;;;;;;7.40;5.40;;;;;;;-1.46;81.89;96408.38;107801;1235;99227;-78
2024/01/07 02:50:34;;;;;;;6.80;5.00;;;;;;;-1.50;81.70;96401.70;107867;1245;98044;-77
2024/01/07 02:53:00;;;;;;;6.90;5.20;;;;;;;-1.54;81.62;96403.84;107789;1238;99948;-77
2024/01/07 02:55:26;;;;;;;6.30;5.00;;;;;;;-1.56;81.57;96400.89;107787;1235;97831;-79
2024/01/07 02:57:53;;;;;;;5.80;5.10;;;;;;;-1.61;81.50;96402.36;107783;1240;97917;-79
2024/01/07 03:00:19;;;;;;;7.20;5.50;;;;;;;-1.60;81.70;96406.48;107857;1237;98400;-77
2024/01/07 03:02:45;;;;;;;6.90;5.10;;;;;;;-1.60;81.67;96407.00;107788;1248;99666;-87
2024/01/07 03:05:12;;;;;;;6.60;5.20;;;;;;;-1.65;81.50;96406.77;107626;1238;97998;-83
2024/01/07 03:07:39;;;;;;;8.20;5.60;;;;;;;-1.70;81.44;96403.89;107709;1239;97923;-89
2024/01/07 03:10:06;;;;;;;5.80;5.20;;;;;;;-1.73;81.43;96400.24;107902;1238;98398;-87
2024/01/07 03:12:33;;;;;;;6.10;5.20;;;;;;;-1.73;81.38;96398.71;107851;1238;99851;-88
2024/01/07 03:14:59;;;;;;;5.30;4.60;;;;;;;-1.75;81.34;96401.52;107833;1238;97921;-88
2024/01/07 03:17:26;;;;;;;5.40;4.70;;;;;;;-1.75;81.33;96403.34;107846;1238;97894;-76
2024/01/07 03:19:52;;;;;;;7.70;5.00;;;;;;;-1.74;81.25;96402.18;107878;1249;99131;-76
2024/01/07 03:22:18;;;;;;;5.20;4.70;;;;;;;-1.77;81.14;96398.10;107780;1239;98828;-75
2024/01/07 03:24:45;;;;;;;6.90;5.60;;;;;;;-1.79;81.18;96394.52;107769;1238;97984;-90
2024/01/07 03:27:11;;;;;;;8.20;6.30;;;;;;;-1.80;81.23;96399.21;107727;1237;99246;-84
2024/01/07 03:29:38;;;;;;;9.90;6.00;;;;;;;-1.86;81.19;96397.17;107906;1235;98046;-84
2024/01/07 03:32:04;;;;;;;6.90;5.70;;;;;;;-1.90;81.17;96400.98;107770;1239;100031;-88
2024/01/07 03:34:31;;;;;;;6.00;5.20;;;;;;;-1.92;81.31;96405.04;107783;1238;97995;-88
2024/01/07 03:36:57;;;;;;;5.80;5.10;;;;;;;-1.90;81.12;96403.20;107817;1238;98326;-89
2024/01/07 03:39:24;;;;;;;7.10;5.30;;;;;;;-1.89;81.07;96405.39;107947;1249;97890;-89
2024/01/07 03:41:55;;;;;;;6.70;4.80;;;;;;;-1.87;81.10;96408.21;107664;1239;98997;-88
2024/01/07 03:44:21;;;;;;;4.50;3.90;;;;;;;-1.89;80.97;96413.20;107760;1238;98806;-77
2024/01/07 03:46:48;;;;;;;7.00;5.70;;;;;;;-1.92;80.99;96415.14;107774;1239;98024;-79
2024/01/07 03:49:15;;;;;;;7.10;5.90;;;;;;;-1.97;80.93;96419.15;107771;1247;97953;-79
2024/01/07 03:51:41;;;;;;;7.90;6.00;;;;;;;-2.03;80.64;96416.03;107854;1239;98024;-78
2024/01/07 03:54:08;;;;;;;8.90;6.00;;;;;;;-2.09;80.55;96418.59;107863;1249;97889;-78
2024/01/07 03:56:34;;;;;;;6.70;5.00;;;;;;;-2.15;80.37;96415.02;107724;1239;98580;-78
2024/01/07 03:59:00;;;;;;;5.60;4.90;;;;;;;-2.18;80.47;96416.04;107867;1247;97909;-79
2024/01/07 04:01:27;;;;;;;6.30;5.30;;;;;;;-2.21;80.56;96419.21;107767;1247;97946;-76
2024/01/07 04:03:53;;;;;;;8.80;6.30;;;;;;;-2.23;80.68;96426.44;107798;1239;97884;-78
2024/01/07 04:06:19;;;;;;;12.60;9.60;;;;;;;-2.24;80.72;96430.42;107801;1246;98488;-77
2024/01/07 04:08:46;;;;;;;7.50;6.10;;;;;;;-2.28;80.64;96430.86;107816;1249;98004;-77
2024/01/07 04:11:12;;;;;;;8.10;5.90;;;;;;;-2.31;80.56;96434.11;107806;1238;97936;-77
2024/01/07 04:13:38;;;;;;;6.40;5.30;;;;;;;-2.36;80.59;96434.31;107868;1238;97962;-78
2024/01/07 04:16:05;;;;;;;6.70;5.20;;;;;;;-2.38;80.51;96432.55;107819;1241;99680;-77
2024/01/07 04:18:31;;;;;;;6.80;5.40;;;;;;;-2.40;80.23;96424.14;107852;1238;97975;-78
2024/01/07 04:20:58;;;;;;;7.90;6.40;;;;;;;-2.41;80.32;96425.32;107842;1238;99128;-75
2024/01/07 04:23:24;;;;;;;7.30;5.70;;;;;;;-2.42;80.45;96425.19;107818;1243;97895;-83
2024/01/07 04:25:51;;;;;;;25.30;17.60;;;;;;;-2.42;80.48;96423.15;107793;1240;99049;-83
2024/01/07 04:28:17;;;;;;;27.90;18.50;;;;;;;-2.41;80.72;96426.18;107806;1238;97968;-82
2024/01/07 04:30:43;;;;;;;8.80;6.80;;;;;;;-2.39;80.85;96428.27;107810;1239;97897;-83
2024/01/07 04:33:10;;;;;;;7.00;5.70;;;;;;;-2.40;80.81;96427.44;107815;1237;97995;-82
2024/01/07 04:35:36;;;;;;;16.20;11.20;;;;;;;-2.38;80.69;96435.22;107814;1236;98465;-82
2024/01/07 04:38:02;;;;;;;7.70;6.10;;;;;;;-2.37;80.64;96439.16;107805;1238;97888;-82
2024/01/07 04:40:29;;;;;;;10.10;7.70;;;;;;;-2.41;80.29;96447.48;107717;1238;97887;-79
2024/01/07 04:42:55;;;;;;;10.90;8.20;;;;;;;-2.45;80.14;96452.36;107871;1239;97908;-78
2024/01/07 04:45:21;;;;;;;12.10;8.90;;;;;;;-2.46;80.14;96454.01;107816;1238;98408;-77
2024/01/07 04:47:48;;;;;;;7.40;6.10;;;;;;;-2.49;80.20;96451.83;107805;1235;97964;-89
2024/01/07 04:50:15;;;;;;;8.70;6.90;;;;;;;-2.51;80.19;96452.77;107796;1234;97923;-87
2024/01/07 04:52:41;;;;;;;15.60;11.40;;;;;;;-2.58;79.99;96452.99;107875;1248;97935;-88
2024/01/07 04:55:09;;;;;;;8.50;6.60;;;;;;;-2.63;80.04;96461.69;107819;1249;98452;-88
2024/01/07 04:57:35;;;;;;;8.00;5.80;;;;;;;-2.70;80.09;96464.35;107766;1238;103507;-89
2024/01/07 05:00:03;;;;;;;9.00;6.90;;;;;;;-2.75;80.01;96460.40;107752;1237;97991;-74
2024/01/07 05:02:30;;;;;;;9.30;5.80;;;;;;;-2.75;80.08;96458.84;107775;1239;98026;-83
2024/01/07 05:04:56;;;;;;;8.00;6.10;;;;;;;-2.76;80.03;96461.95;107812;1235;98628;-83
2024/01/07 05:07:22;;;;;;;8.30;5.90;;;;;;;-2.79;79.96;96463.06;107874;1239;97869;-80
2024/01/07 05:09:49;;;;;;;19.50;14.60;;;;;;;-2.80;79.97;96466.19;107843;1239;101093;-83
2024/01/07 05:12:15;;;;;;;7.50;6.00;;;;;;;-2.85;79.88;96476.19;107801;1239;97937;-82
2024/01/07 05:14:42;;;;;;;7.80;5.80;;;;;;;-2.90;79.86;96479.33;107789;1239;97986;-82
2024/01/07 05:17:09;;;;;;;6.30;5.10;;;;;;;-2.91;79.92;96476.81;107952;1241;98023;-83
2024/01/07 05:19:36;;;;;;;6.20;5.50;;;;;;;-2.93;79.97;96476.96;107829;1248;101201;-76
2024/01/07 05:22:02;;;;;;;7.30;5.30;;;;;;;-2.94;79.99;96476.69;107799;1238;97845;-86
2024/01/07 05:24:28;;;;;;;6.70;5.20;;;;;;;-2.96;79.91;96476.89;107820;1238;97937;-89
2024/01/07 05:26:55;;;;;;;7.70;4.70;;;;;;;-2.96;80.03;96477.09;107901;1235;98508;-90
2024/01/07 05:29:22;;;;;;;10.50;7.80;;;;;;;-2.96;79.90;96477.64;107810;1239;100064;-87
2024/01/07 05:31:48;;;;;;;5.30;4.80;;;;;;;-2.98;79.81;96479.40;107794;1239;98794;-87
2024/01/07 05:34:14;;;;;;;13.80;9.30;;;;;;;-3.01;79.54;96484.96;107808;1239;97953;-88
2024/01/07 05:36:41;;;;;;;8.90;6.00;;;;;;;-3.05;79.52;96482.55;107908;1235;97940;-78
2024/01/07 05:39:07;;;;;;;7.30;5.10;;;;;;;-3.08;79.61;96484.95;107792;1239;100330;-89
2024/01/07 05:41:34;;;;;;;6.00;4.80;;;;;;;-3.09;79.64;96482.41;107798;1245;99136;-89
2024/01/07 05:44:00;;;;;;;5.80;4.60;;;;;;;-3.08;79.70;96483.80;107827;1238;98953;-88
2024/01/07 05:46:26;;;;;;;5.70;4.60;;;;;;;-3.08;79.65;96485.57;107905;1238;97994;-91
2024/01/07 05:48:53;;;;;;;7.00;4.90;;;;;;;-3.10;79.61;96482.16;107801;1240;99937;-87
2024/01/07 05:51:19;;;;;;;7.40;5.10;;;;;;;-3.12;79.47;96488.51;107836;1246;97823;-86
2024/01/07 05:53:46;;;;;;;6.00;4.40;;;;;;;-3.15;79.42;96493.94;107793;1237;98170;-90
2024/01/07 05:56:12;;;;;;;5.60;4.40;;;;;;;-3.18;79.43;96496.67;107894;1238;98402;-75
2024/01/07 05:58:39;;;;;;;5.70;4.00;;;;;;;-3.22;79.15;96496.41;107744;1238;101422;-88
2024/01/07 06:01:08;;;;;;;5.30;4.40;;;;;;;-3.29;79.04;96500.89;107831;1248;97991;-81
2024/01/07 06:03:34;;;;;;;6.60;5.10;;;;;;;-3.34;79.20;96499.11;107830;1242;97885;-83
2024/01/07 06:06:01;;;;;;;5.50;4.10;;;;;;;-3.36;79.23;96498.04;107790;1246;98335;-81
2024/01/07 06:08:27;;;;;;;8.30;4.30;;;;;;;-3.37;79.22;96500.83;107810;1237;97954;-81
2024/01/07 06:10:54;;;;;;;5.50;4.10;;;;;;;-3.37;79.43;96502.41;107839;1249;97996;-82
2024/01/07 06:13:20;;;;;;;5.80;4.10;;;;;;;-3.36;79.32;96499.30;107817;1239;97880;-82
2024/01/07 06:15:46;;;;;;;5.80;4.20;;;;;;;-3.38;79.02;96501.75;107837;1239;97964;-88
2024/01/07 06:18:13;;;;;;;7.20;4.50;;;;;;;-3.39;79.07;96506.46;107779;1235;97903;-76
2024/01/07 06:20:39;;;;;;;11.30;7.80;;;;;;;-3.41;79.03;96504.00;107863;1241;99200;-78
2024/01/07 06:23:06;;;;;;;7.70;5.70;;;;;;;-3.40;79.09;96509.25;107758;1249;99120;-76
2024/01/07 06:25:32;;;;;;;6.90;5.10;;;;;;;-3.41;79.17;96516.89;107803;1239;97963;-77
2024/01/07 06:27:58;;;;;;;5.20;4.20;;;;;;;-3.40;79.32;96522.05;107797;1238;97908;-78
2024/01/07 06:30:25;;;;;;;8.10;5.90;;;;;;;-3.36;79.23;96527.86;107898;1235;98020;-78
2024/01/07 06:32:53;;;;;;;7.50;6.30;;;;;;;-3.35;79.30;96533.54;107839;1238;97908;-75
2024/01/07 06:35:19;;;;;;;6.70;5.20;;;;;;;-3.35;79.19;96531.98;107821;1238;98492;-75
2024/01/07 06:37:45;;;;;;;7.70;5.30;;;;;;;-3.38;79.19;96533.94;107626;1248;97991;-82
2024/01/07 06:40:12;;;;;;;8.00;5.70;;;;;;;-3.35;79.41;96537.70;107691;1237;97973;-78
2024/01/07 06:42:39;;;;;;;6.60;4.90;;;;;;;-3.28;79.46;96540.63;107850;1239;97899;-78
2024/01/07 06:45:06;;;;;;;7.50;6.00;;;;;;;-3.30;79.30;96534.74;107787;1239;98504;-77
2024/01/07 06:47:32;;;;;;;5.20;4.70;;;;;;;-3.33;78.93;96539.77;107702;1238;99132;-83
2024/01/07 06:49:58;;;;;;;4.10;3.60;;;;;;;-3.37;78.77;96541.27;107759;1246;98813;-87
2024/01/07 06:52:25;;;;;;;4.70;3.70;;;;;;;-3.42;78.50;96542.48;107770;1238;97977;-89
2024/01/07 06:54:51;;;;;;;5.00;4.00;;;;;;;-3.46;78.54;96544.23;107394;1237;98715;-87
2024/01/07 06:57:17;;;;;;;8.70;7.20;;;;;;;-3.46;78.87;96550.03;107794;1237;98499;-83
2024/01/07 06:59:44;;;;;;;19.20;11.90;;;;;;;-3.43;79.16;96556.98;107815;1248;97910;-83
2024/01/07 07:02:10;;;;;;;20.80;14.60;;;;;;;-3.41;79.22;96554.47;107777;1244;98008;-81
2024/01/07 07:04:37;;;;;;;18.50;12.20;;;;;;;-3.43;79.18;96557.86;107793;1239;98715;-82
2024/01/07 07:07:03;;;;;;;18.60;12.60;;;;;;;-3.46;79.27;96561.87;107792;1238;98003;-83
2024/01/07 07:09:30;;;;;;;8.50;6.10;;;;;;;-3.49;79.31;96559.48;107810;1246;97985;-83
2024/01/07 07:11:56;;;;;;;8.00;5.90;;;;;;;-3.54;78.91;96556.96;107842;1238;98442;-81
2024/01/07 07:14:22;;;;;;;8.40;6.50;;;;;;;-3.56;78.90;96552.05;107799;1239;98791;-75
2024/01/07 07:16:49;;;;;;;8.80;5.80;;;;;;;-3.55;78.92;96555.36;107667;1243;97922;-81
2024/01/07 07:19:16;;;;;;;9.30;6.90;;;;;;;-3.57;78.86;96556.00;107804;1240;97985;-82
2024/01/07 07:21:44;;;;;;;11.40;7.90;;;;;;;-3.59;78.97;96566.66;107783;1248;98494;-83
2024/01/07 07:24:10;;;;;;;15.00;11.20;;;;;;;-3.57;79.18;96572.25;107805;1249;97905;-83
2024/01/07 07:26:40;;;;;;;9.40;6.80;;;;;;;-3.56;79.32;96574.80;107901;1246;97982;-82
2024/01/07 07:29:09;;;;;;;5.80;5.20;;;;;;;-3.60;78.88;96580.59;107857;1238;101297;-84
2024/01/07 07:31:36;;;;;;;7.30;5.00;;;;;;;-3.62;78.72;96578.91;107855;1239;99888;-87
2024/01/07 07:34:06;;;;;;;6.70;5.10;;;;;;;-3.64;78.68;96578.55;107757;1237;99131;-87
2024/01/07 07:36:33;;;;;;;5.30;4.60;;;;;;;-3.64;78.65;96579.09;107816;1238;98342;-82
2024/01/07 07:38:59;;;;;;;7.80;6.10;;;;;;;-3.61;78.77;96581.28;107797;1238;97893;-80
2024/01/07 07:41:26;;;;;;;9.40;7.60;;;;;;;-3.60;78.77;96585.72;107817;1239;97919;-82
2024/01/07 07:43:52;;;;;;;5.40;4.60;;;;;;;-3.60;78.55;96585.55;107883;1237;97890;-81
2024/01/07 07:46:18;;;;;;;7.70;5.80;;;;;;;-3.58;78.53;96590.98;107782;1238;98574;-81
2024/01/07 07:48:45;;;;;;;9.00;6.80;;;;;;;-3.56;78.51;96591.10;107777;1238;97931;-82
2024/01/07 07:51:11;;;;;;;11.90;8.50;;;;;;;-3.54;78.38;96595.67;107742;1244;97921;-81
2024/01/07 07:53:40;;;;;;;11.00;6.30;;;;;;;-3.54;78.29;96597.98;107796;1241;97820;-76
2024/01/07 07:56:08;;;;;;;10.10;6.40;;;;;;;-3.58;78.19;96604.81;107682;1237;98395;-87
2024/01/07 07:58:34;;;;;;;8.40;6.10;;;;;;;-3.58;78.02;96606.63;107797;1241;103408;-87
2024/01/07 08:01:01;;;;;;;7.50;5.20;;;;;;;-3.59;77.84;96607.73;107775;1238;97918;-82
2024/01/07 08:03:28;;;;;;;14.30;11.30;;;;;;;-3.58;77.89;96607.48;107831;1249;98458;-83
2024/01/07 08:05:54;;;;;;;9.30;7.10;;;;;;;-3.56;77.85;96607.02;107815;1243;97999;-82
2024/01/07 08:08:20;;;;;;;6.80;5.20;;;;;;;-3.54;77.82;96612.26;107803;1239;103186;-82
2024/01/07 08:10:47;;;;;;;8.40;6.40;;;;;;;-3.53;77.84;96613.14;107736;1246;98017;-82
2024/01/07 08:13:13;;;;;;;9.30;6.50;;;;;;;-3.51;77.83;96617.26;107749;1240;97982;-82
2024/01/07 08:15:40;;;;;;;10.50;7.60;;;;;;;-3.54;77.74;96616.79;107752;1237;98510;-81
2024/01/07 08:18:06;;;;;;;8.30;6.60;;;;;;;-3.54;77.69;96618.86;107704;1240;103321;-76
2024/01/07 08:20:33;;;;;;;9.00;5.40;;;;;;;-3.55;77.52;96617.37;107780;1239;98285;-75
2024/01/07 08:23:00;;;;;;;6.70;4.80;;;;;;;-3.59;77.15;96621.10;107810;1239;97921;-77
2024/01/07 08:25:26;;;;;;;6.30;4.60;;;;;;;-3.60;77.37;96623.82;107786;1237;97979;-77
2024/01/07 08:27:52;;;;;;;7.50;5.10;;;;;;;-3.59;77.38;96623.95;107873;1239;98515;-76
2024/01/07 08:30:19;;;;;;;7.90;5.80;;;;;;;-3.58;77.32;96626.70;107826;1249;100261;-88
2024/01/07 08:32:45;;;;;;;13.70;8.10;;;;;;;-3.58;77.31;96629.86;107629;1245;97940;-83
2024/01/07 08:35:12;;;;;;;19.20;11.20;;;;;;;-3.59;77.19;96633.44;107648;1248;97905;-83
2024/01/07 08:37:38;;;;;;;23.80;15.00;;;;;;;-3.57;77.37;96638.89;107878;1238;97959;-81
2024/01/07 08:40:05;;;;;;;23.00;15.50;;;;;;;-3.52;77.50;96640.36;107808;1234;101295;-80
2024/01/07 08:42:32;;;;;;;18.00;11.90;;;;;;;-3.49;77.68;96642.34;107767;1239;99791;-83
2024/01/07 08:45:00;;;;;;;10.40;7.00;;;;;;;-3.50;77.78;96641.17;107703;1237;99052;-81
2024/01/07 08:47:28;;;;;;;20.30;12.30;;;;;;;-3.50;77.40;96649.14;107394;1237;99068;-87
2024/01/07 08:49:54;;;;;;;22.50;14.40;;;;;;;-3.50;77.34;96649.98;107815;1248;97915;-77
2024/01/07 08:52:21;;;;;;;14.80;9.30;;;;;;;-3.45;77.34;96648.83;107799;1239;97891;-87
2024/01/07 08:54:47;;;;;;;12.10;7.40;;;;;;;-3.44;77.19;96650.66;107780;1235;99140;-88
2024/01/07 08:57:13;;;;;;;13.10;8.90;;;;;;;-3.45;77.11;96646.91;107830;1248;97898;-89
2024/01/07 08:59:40;;;;;;;9.80;6.20;;;;;;;-3.43;77.25;96652.46;107853;1238;103130;-87
2024/01/07 09:02:06;;;;;;;10.80;7.90;;;;;;;-3.38;77.28;96654.33;107838;1239;97908;-82
2024/01/07 09:04:33;;;;;;;11.60;7.10;;;;;;;-3.35;77.13;96657.17;107751;1239;98797;-82
2024/01/07 09:07:00;;;;;;;9.10;6.00;;;;;;;-3.32;76.98;96658.98;107752;1249;97912;-82
2024/01/07 09:09:26;;;;;;;10.50;7.10;;;;;;;-3.29;76.87;96659.65;107752;1239;97935;-83
2024/01/07 09:11:53;;;;;;;10.10;6.20;;;;;;;-3.31;76.63;96658.76;107650;1235;101883;-77
2024/01/07 09:14:19;;;;;;;8.80;6.40;;;;;;;-3.33;76.74;96658.20;107674;1243;97834;-77
2024/01/07 09:16:45;;;;;;;8.30;6.20;;;;;;;-3.33;76.78;96656.09;107621;1249;97940;-77
2024/01/07 09:19:12;;;;;;;12.40;8.00;;;;;;;-3.32;76.75;96653.56;107797;1236;98031;-77
2024/01/07 09:21:39;;;;;;;8.40;6.60;;;;;;;-3.32;76.78;96654.30;107608;1249;100260;-75
2024/01/07 09:24:05;;;;;;;7.30;5.70;;;;;;;-3.33;76.76;96657.31;107732;1249;97891;-75
2024/01/07 09:26:32;;;;;;;7.80;5.30;;;;;;;-3.32;76.78;96658.30;107712;1239;97906;-76
2024/01/07 09:28:58;;;;;;;6.80;5.60;;;;;;;-3.31;76.77;96660.52;107599;1238;99154;-79
2024/01/07 09:31:24;;;;;;;7.80;5.60;;;;;;;-3.30;76.83;96658.12;107712;1248;99906;-78
2024/01/07 09:33:51;;;;;;;7.70;5.60;;;;;;;-3.28;76.84;96658.63;107772;1239;97975;-78
2024/01/07 09:36:17;;;;;;;8.30;5.80;;;;;;;-3.24;76.90;96662.34;107817;1237;98033;-79
2024/01/07 09:38:44;;;;;;;9.00;6.20;;;;;;;-3.23;76.64;96662.76;107867;1237;98426;-77
2024/01/07 09:41:10;;;;;;;8.10;5.10;;;;;;;-3.24;76.26;96660.26;107798;1246;101303;-78
2024/01/07 09:43:37;;;;;;;8.50;6.10;;;;;;;-3.29;76.15;96661.18;107756;1238;97940;-77
2024/01/07 09:46:03;;;;;;;8.60;6.20;;;;;;;-3.32;76.26;96660.79;107792;1239;97933;-78
2024/01/07 09:48:30;;;;;;;8.50;6.00;;;;;;;-3.33;76.30;96660.66;107808;1238;99228;-80
2024/01/07 09:50:58;;;;;;;7.90;5.50;;;;;;;-3.37;76.13;96661.27;107805;1237;100732;-75
2024/01/07 09:53:27;;;;;;;8.30;5.50;;;;;;;-3.43;75.97;96658.35;107815;1241;99893;-75
2024/01/07 09:55:59;;;;;;;7.10;5.10;;;;;;;-3.43;76.07;96661.46;107813;1241;97892;-76
2024/01/07 09:58:25;;;;;;;;;;;;;;;-3.42;76.10;96658.71;107773;1248;97905;-75
2024/01/07 10:00:52;;;;;;;8.20;6.10;;;;;;;-3.43;76.02;96653.35;107775;1248;98050;-76
2024/01/07 10:03:19;;;;;;;8.60;6.10;;;;;;;-3.40;76.01;96654.55;107844;1247;97902;-75
2024/01/07 10:05:45;;;;;;;9.20;6.80;;;;;;;-3.37;76.15;96654.05;107789;1235;97905;-77
2024/01/07 10:08:12;;;;;;;9.90;7.30;;;;;;;-3.34;76.12;96656.73;107794;1235;97969;-76
2024/01/07 10:10:40;;;;;;;12.00;7.30;;;;;;;-3.32;76.07;96655.31;107809;1246;103460;-78
2024/01/07 10:13:08;;;;;;;16.40;11.10;;;;;;;-3.31;76.07;96661.54;107800;1237;101202;-78
2024/01/07 10:15:35;;;;;;;12.80;8.30;;;;;;;-3.30;75.94;96660.10;107786;1249;98175;-78
2024/01/07 10:18:07;;;;;;;12.00;8.40;;;;;;;-3.32;75.74;96656.06;107942;1248;97895;-77
2024/01/07 10:20:34;;;;;;;16.00;10.40;;;;;;;-3.32;75.84;96652.67;107809;1240;98417;-78
2024/01/07 10:23:02;;;;;;;11.20;8.70;;;;;;;-3.30;75.82;96657.92;107797;1239;97909;-80
2024/01/07 10:25:31;;;;;;;13.90;9.20;;;;;;;-3.26;75.82;96657.07;107835;1235;101264;-79
2024/01/07 10:28:01;;;;;;;12.40;8.30;;;;;;;-3.23;75.76;96655.16;107795;1244;98817;-83
2024/01/07 10:30:28;;;;;;;12.10;7.90;;;;;;;-3.21;75.65;96651.66;107747;1239;97924;-82
2024/01/07 10:32:59;;;;;;;15.00;10.10;;;;;;;-3.19;75.67;96652.72;107772;1246;97861;-81
2024/01/07 10:35:36;;;;;;;11.00;7.80;;;;;;;-3.16;75.71;96657.91;107836;1240;103407;-82
2024/01/07 10:38:03;;;;;;;13.00;8.70;;;;;;;-3.16;75.53;96655.44;108025;1239;101161;-82
2024/01/07 10:40:32;;;;;;;13.70;10.10;;;;;;;-3.18;75.39;96654.88;107768;1239;97892;-82
2024/01/07 10:42:58;;;;;;;13.50;9.10;;;;;;;-3.18;75.26;96650.91;107712;1239;97908;-82
2024/01/07 10:45:25;;;;;;;10.90;7.30;;;;;;;-3.19;75.19;96647.97;107784;1239;98410;-82
2024/01/07 10:47:55;;;;;;;10.60;7.60;;;;;;;-3.18;75.40;96644.55;107648;1249;99137;-80
2024/01/07 10:50:22;;;;;;;9.30;7.10;;;;;;;-3.17;75.36;96644.27;107462;1244;101621;-78
2024/01/07 10:52:58;;;;;;;11.40;7.50;;;;;;;-3.20;75.05;96641.55;107782;1242;97825;-77
2024/01/07 10:55:31;;;;;;;11.00;7.30;;;;;;;-3.25;75.03;96641.11;107848;1241;97959;-78
2024/01/07 10:57:58;;;;;;;13.00;9.30;;;;;;;-3.24;75.13;96640.00;107944;1237;99012;-78
2024/01/07 11:00:25;;;;;;;11.80;8.40;;;;;;;-3.24;75.17;96640.86;107852;1237;103521;-78
2024/01/07 11:03:11;;;;;;;11.30;8.10;;;;;;;-3.23;75.15;96643.46;107730;1239;97915;-75
2024/01/07 11:06:03;;;;;;;11.50;7.80;;;;;;;-3.23;75.18;96643.09;107840;1243;99812;-75
2024/01/07 11:08:41;;;;;;;12.40;7.40;;;;;;;-3.20;75.11;96641.74;107758;1239;97891;-80
2024/01/07 11:11:18;;;;;;;10.70;7.50;;;;;;;-3.18;75.13;96640.88;107798;1239;99381;-78
2024/01/07 11:13:44;;;;;;;13.70;8.10;;;;;;;-3.19;74.83;96639.71;107848;1239;102799;-78
2024/01/07 11:16:11;;;;;;;12.60;9.00;;;;;;;-3.22;74.61;96637.05;107784;1239;97860;-79
2024/01/07 11:18:46;;;;;;;10.30;7.80;;;;;;;-3.23;74.83;96637.25;107791;1249;97984;-78
2024/01/07 11:21:22;;;;;;;14.70;9.20;;;;;;;-3.21;74.77;96640.64;107808;1241;98267;-78